createdAt,value
2023-04-23T00:01:12.544Z,100.00
2023-04-23T00:02:47.078Z,100.00
2023-04-23T00:04:23.695Z,100.00
2023-04-23T00:05:59.411Z,100.00
2023-04-23T00:07:34.232Z,100.00
2023-04-23T00:09:07.726Z,100.00
2023-04-23T00:10:40.197Z,100.00
2023-04-23T00:12:15.539Z,100.00
2023-04-23T00:13:49.708Z,100.00
2023-04-23T00:15:23.203Z,100.00
2023-04-23T00:16:56.837Z,100.00
2023-04-23T00:18:30.353Z,100.00
2023-04-23T00:20:03.876Z,100.00
2023-04-23T00:21:37.020Z,100.00
2023-04-23T00:23:10.317Z,100.00
2023-04-23T00:24:43.574Z,100.00
2023-04-23T00:26:18.657Z,100.00
2023-04-23T00:27:53.126Z,100.00
2023-04-23T00:29:26.312Z,100.00
2023-04-23T00:30:59.479Z,100.00
2023-04-23T00:32:33.274Z,100.00
2023-04-23T00:34:07.050Z,100.00
2023-04-23T00:35:40.292Z,100.00
2023-04-23T00:37:13.367Z,100.00
2023-04-23T00:38:46.931Z,100.00
2023-04-23T00:40:20.562Z,100.00
2023-04-23T00:41:53.665Z,100.00
2023-04-23T00:43:28.663Z,100.00
2023-04-23T00:45:02.905Z,100.00
2023-04-23T00:46:36.817Z,100.00
2023-04-23T00:48:10.507Z,100.00
2023-04-23T00:49:44.318Z,100.00
2023-04-23T00:51:17.914Z,100.00
2023-04-23T00:52:51.087Z,100.00
2023-04-23T00:54:23.331Z,100.00
2023-04-23T00:55:56.633Z,100.00
2023-04-23T00:57:30.691Z,100.00
2023-04-23T00:59:05.391Z,100.00
2023-04-23T01:00:46.356Z,100.00
2023-04-23T01:02:20.540Z,100.00
2023-04-23T01:03:54.182Z,100.00
2023-04-23T01:05:27.634Z,100.00
2023-04-23T01:07:01.753Z,100.00
2023-04-23T01:08:36.060Z,100.00
2023-04-23T01:10:11.331Z,100.00
2023-04-23T01:11:44.320Z,100.00
2023-04-23T01:13:17.960Z,100.00
2023-04-23T01:14:53.308Z,100.00
2023-04-23T01:16:26.795Z,100.00
2023-04-23T01:18:00.256Z,100.00
2023-04-23T01:19:33.662Z,100.00
2023-04-23T01:21:07.302Z,100.00
2023-04-23T01:22:42.336Z,100.00
2023-04-23T01:24:14.594Z,100.00
2023-04-23T01:25:47.920Z,100.00
2023-04-23T01:27:20.409Z,100.00
2023-04-23T01:28:54.243Z,100.00
2023-04-23T01:30:28.504Z,100.00
2023-04-23T01:32:01.842Z,100.00
2023-04-23T01:33:36.013Z,100.00
2023-04-23T01:35:10.143Z,100.00
2023-04-23T01:36:44.801Z,100.00
2023-04-23T01:38:20.957Z,100.00
2023-04-23T01:39:54.368Z,100.00
2023-04-23T01:41:28.497Z,100.00
2023-04-23T01:43:01.856Z,100.00
2023-04-23T01:44:35.230Z,100.00
2023-04-23T01:46:07.502Z,100.00
2023-04-23T01:47:42.194Z,100.00
2023-04-23T01:49:15.535Z,100.00
2023-04-23T01:50:49.345Z,100.00
2023-04-23T01:52:22.692Z,100.00
2023-04-23T01:53:57.762Z,100.00
2023-04-23T01:55:30.365Z,100.00
2023-04-23T01:57:03.973Z,100.00
2023-04-23T01:58:36.379Z,100.00
2023-04-23T02:00:11.959Z,100.00
2023-04-23T02:01:45.611Z,100.00
2023-04-23T02:03:19.055Z,100.00
2023-04-23T02:04:53.467Z,100.00
2023-04-23T02:06:26.985Z,100.00
2023-04-23T02:08:00.379Z,100.00
2023-04-23T02:09:34.886Z,100.00
2023-04-23T02:11:08.052Z,100.00
2023-04-23T02:12:41.057Z,100.00
2023-04-23T02:14:15.832Z,100.00
2023-04-23T02:15:47.969Z,100.00
2023-04-23T02:17:23.115Z,100.00
2023-04-23T02:18:55.730Z,100.00
2023-04-23T02:20:29.041Z,100.00
2023-04-23T02:22:02.836Z,100.00
2023-04-23T02:23:35.993Z,100.00
2023-04-23T02:25:11.673Z,100.00
2023-04-23T02:26:44.768Z,100.00
2023-04-23T02:28:18.015Z,100.00
2023-04-23T02:29:50.237Z,100.00
2023-04-23T02:31:23.712Z,100.00
2023-04-23T02:32:55.907Z,100.00
2023-04-23T02:34:29.137Z,100.00
2023-04-23T02:36:02.387Z,100.00
2023-04-23T02:37:37.186Z,100.00
2023-04-23T02:39:09.507Z,100.00
2023-04-23T02:40:44.389Z,100.00
2023-04-23T02:42:17.484Z,100.00
2023-04-23T02:43:50.790Z,100.00
2023-04-23T02:45:23.965Z,100.00
2023-04-23T02:46:57.455Z,100.00
2023-04-23T02:48:29.913Z,100.00
2023-04-23T02:50:06.137Z,100.00
2023-04-23T02:51:39.390Z,100.00
2023-04-23T02:53:12.495Z,100.00
2023-04-23T02:54:46.131Z,100.00
2023-04-23T02:56:21.154Z,100.00
2023-04-23T02:57:54.374Z,100.00
2023-04-23T02:59:27.075Z,100.00
2023-04-23T03:01:00.924Z,100.00
2023-04-23T03:02:33.698Z,100.00
2023-04-23T03:04:07.654Z,100.00
2023-04-23T03:05:41.003Z,100.00
2023-04-23T03:07:17.448Z,100.00
2023-04-23T03:08:51.047Z,100.00
2023-04-23T03:10:24.202Z,100.00
2023-04-23T03:11:58.797Z,100.00
2023-04-23T03:13:31.087Z,100.00
2023-04-23T03:15:04.673Z,100.00
2023-04-23T03:16:39.976Z,100.00
2023-04-23T03:18:12.473Z,100.00
2023-04-23T03:19:46.034Z,100.00
2023-04-23T03:21:19.129Z,100.00
2023-04-23T03:22:52.391Z,100.00
2023-04-23T03:24:26.150Z,100.00
2023-04-23T03:25:59.325Z,100.00
2023-04-23T03:27:33.241Z,100.00
2023-04-23T03:29:07.468Z,100.00
2023-04-23T03:30:41.261Z,100.00
2023-04-23T03:32:14.882Z,100.00
2023-04-23T03:33:48.751Z,100.00
2023-04-23T03:35:28.159Z,100.00
2023-04-23T03:37:03.734Z,100.00
2023-04-23T03:38:42.646Z,100.00
2023-04-23T03:40:16.382Z,100.00
2023-04-23T03:41:52.274Z,100.00
2023-04-23T03:43:30.631Z,100.00
2023-04-23T03:45:09.611Z,100.00
2023-04-23T03:46:43.028Z,100.00
2023-04-23T03:48:17.127Z,100.00
2023-04-23T03:49:50.999Z,100.00
2023-04-23T03:51:24.354Z,100.00
2023-04-23T03:52:57.601Z,100.00
2023-04-23T03:54:51.073Z,100.00
2023-04-23T03:56:27.058Z,100.00
2023-04-23T03:58:17.649Z,100.00
2023-04-23T03:59:53.686Z,100.00
2023-04-23T04:01:26.971Z,100.00
2023-04-23T04:03:00.849Z,100.00
2023-04-23T04:04:35.560Z,100.00
2023-04-23T04:06:09.383Z,100.00
2023-04-23T04:07:42.513Z,100.00
2023-04-23T04:09:15.853Z,100.00
2023-04-23T04:10:49.295Z,100.00
2023-04-23T04:12:22.611Z,100.00
2023-04-23T04:13:54.881Z,100.00
2023-04-23T04:15:29.418Z,100.00
2023-04-23T04:17:01.587Z,100.00
2023-04-23T04:18:34.880Z,100.00
2023-04-23T04:20:09.588Z,100.00
2023-04-23T04:21:42.818Z,100.00
2023-04-23T04:23:16.185Z,100.00
2023-04-23T04:24:48.349Z,100.00
2023-04-23T04:26:21.531Z,100.00
2023-04-23T04:27:54.726Z,100.00
2023-04-23T04:29:28.533Z,100.00
2023-04-23T04:31:03.397Z,100.00
2023-04-23T04:32:38.866Z,100.00
2023-04-23T04:34:14.682Z,100.00
2023-04-23T04:35:49.241Z,100.00
2023-04-23T04:37:21.865Z,100.00
2023-04-23T04:38:56.140Z,100.00
2023-04-23T04:40:30.503Z,100.00
2023-04-23T04:42:04.221Z,100.00
2023-04-23T04:43:37.741Z,100.00
2023-04-23T04:45:11.722Z,100.00
2023-04-23T04:46:46.324Z,100.00
2023-04-23T04:48:19.769Z,100.00
2023-04-23T04:49:52.055Z,100.00
2023-04-23T04:51:25.203Z,100.00
2023-04-23T04:52:58.360Z,100.00
2023-04-23T04:54:31.619Z,100.00
2023-04-23T04:56:05.057Z,100.00
2023-04-23T04:57:38.169Z,100.00
2023-04-23T04:59:11.471Z,100.00
2023-04-23T05:00:44.897Z,100.00
2023-04-23T05:02:18.799Z,100.00
2023-04-23T05:03:52.193Z,100.00
2023-04-23T05:05:26.834Z,100.00
2023-04-23T05:07:00.127Z,100.00
2023-04-23T05:08:33.322Z,100.00
2023-04-23T05:10:07.350Z,100.00
2023-04-23T05:11:41.275Z,100.00
2023-04-23T05:13:14.639Z,100.00
2023-04-23T05:14:47.808Z,100.00
2023-04-23T05:16:21.335Z,100.00
2023-04-23T05:17:55.938Z,100.00
2023-04-23T05:19:29.348Z,100.00
2023-04-23T05:21:02.638Z,100.00
2023-04-23T05:22:35.964Z,100.00
2023-04-23T05:24:09.242Z,100.00
2023-04-23T05:25:42.623Z,100.00
2023-04-23T05:27:15.924Z,100.00
2023-04-23T05:28:49.074Z,100.00
2023-04-23T05:30:22.378Z,100.00
2023-04-23T05:31:55.685Z,100.00
2023-04-23T05:33:39.130Z,100.00
2023-04-23T05:35:16.512Z,100.00
2023-04-23T05:36:49.642Z,100.00
2023-04-23T05:38:22.962Z,100.00
2023-04-23T05:39:56.965Z,100.00
2023-04-23T05:41:30.343Z,100.00
2023-04-23T05:43:02.717Z,100.00
2023-04-23T05:44:35.984Z,100.00
2023-04-23T05:46:09.292Z,100.00
2023-04-23T05:47:42.514Z,100.00
2023-04-23T05:49:17.077Z,100.00
2023-04-23T05:50:50.559Z,100.00
2023-04-23T05:52:23.146Z,100.00
2023-04-23T05:53:56.400Z,100.00
2023-04-23T05:55:30.003Z,100.00
2023-04-23T05:57:04.054Z,100.00
2023-04-23T05:58:38.970Z,100.00
2023-04-23T06:00:13.119Z,100.00
2023-04-23T06:01:46.451Z,100.00
2023-04-23T06:03:20.134Z,100.00
2023-04-23T06:04:55.320Z,100.00
2023-04-23T06:06:28.803Z,100.00
2023-04-23T06:08:01.935Z,100.00
2023-04-23T06:09:35.232Z,100.00
2023-04-23T06:11:08.927Z,100.00
2023-04-23T06:12:42.374Z,100.00
2023-04-23T06:14:15.711Z,100.00
2023-04-23T06:15:49.022Z,100.00
2023-04-23T06:17:23.096Z,100.00
2023-04-23T06:18:56.336Z,100.00
2023-04-23T06:20:31.668Z,100.00
2023-04-23T06:22:04.070Z,100.00
2023-04-23T06:23:37.511Z,100.00
2023-04-23T06:25:11.254Z,100.00
2023-04-23T06:26:44.356Z,100.00
2023-04-23T06:28:22.248Z,100.00
2023-04-23T06:30:18.176Z,100.00
2023-04-23T06:31:51.790Z,100.00
2023-04-23T06:33:25.176Z,100.00
2023-04-23T06:35:01.896Z,100.00
2023-04-23T06:36:37.071Z,100.00
2023-04-23T06:38:10.301Z,100.00
2023-04-23T06:39:43.548Z,100.00
2023-04-23T06:41:16.923Z,100.00
2023-04-23T06:42:50.317Z,100.00
2023-04-23T06:44:40.965Z,100.00
2023-04-23T06:46:14.311Z,100.00
2023-04-23T06:47:49.301Z,100.00
2023-04-23T06:49:23.238Z,100.00
2023-04-23T06:50:56.362Z,100.00
2023-04-23T06:52:30.976Z,100.00
2023-04-23T06:54:04.202Z,100.00
2023-04-23T06:55:37.595Z,100.00
2023-04-23T06:57:11.207Z,100.00
2023-04-23T06:58:44.416Z,100.00
2023-04-23T07:00:24.086Z,100.00
2023-04-23T07:01:57.755Z,100.00
2023-04-23T07:03:31.400Z,100.00
2023-04-23T07:05:05.261Z,100.00
2023-04-23T07:06:38.407Z,100.00
2023-04-23T07:08:13.643Z,100.00
2023-04-23T07:09:48.418Z,100.00
2023-04-23T07:11:22.022Z,100.00
2023-04-23T07:12:55.215Z,100.00
2023-04-23T07:14:28.517Z,100.00
2023-04-23T07:16:01.777Z,100.00
2023-04-23T07:17:35.056Z,100.00
2023-04-23T07:19:08.229Z,100.00
2023-04-23T07:20:42.037Z,100.00
2023-04-23T07:22:15.195Z,100.00
2023-04-23T07:23:50.216Z,100.00
2023-04-23T07:25:24.824Z,100.00
2023-04-23T07:26:59.283Z,100.00
2023-04-23T07:28:32.990Z,100.00
2023-04-23T07:30:08.272Z,100.00
2023-04-23T07:31:42.640Z,100.00
2023-04-23T07:33:16.296Z,100.00
2023-04-23T07:34:49.516Z,100.00
2023-04-23T07:36:23.223Z,100.00
2023-04-23T07:37:58.037Z,100.00
2023-04-23T07:39:33.577Z,100.00
2023-04-23T07:41:07.119Z,100.00
2023-04-23T07:42:41.188Z,100.00
2023-04-23T07:44:14.909Z,100.00
2023-04-23T07:45:48.492Z,100.00
2023-04-23T07:47:22.121Z,100.00
2023-04-23T07:48:54.482Z,100.00
2023-04-23T07:50:28.259Z,100.00
2023-04-23T07:52:02.046Z,100.00
2023-04-23T07:53:36.557Z,100.00
2023-04-23T07:55:11.890Z,100.00
2023-04-23T07:56:46.686Z,100.00
2023-04-23T07:58:19.124Z,100.00
2023-04-23T07:59:52.557Z,100.00
2023-04-23T08:01:26.722Z,100.00
2023-04-23T08:03:00.678Z,100.00
2023-04-23T08:04:34.581Z,100.00
2023-04-23T08:06:08.345Z,100.00
2023-04-23T08:07:41.737Z,100.00
2023-04-23T08:09:15.057Z,100.00
2023-04-23T08:10:49.692Z,100.00
2023-04-23T08:12:23.065Z,100.00
2023-04-23T08:13:56.437Z,100.00
2023-04-23T08:15:29.590Z,100.00
2023-04-23T08:17:01.858Z,100.00
2023-04-23T08:18:35.295Z,100.00
2023-04-23T08:20:09.781Z,100.00
2023-04-23T08:21:42.924Z,100.00
2023-04-23T08:23:16.379Z,100.00
2023-04-23T08:24:49.603Z,100.00
2023-04-23T08:26:24.754Z,100.00
2023-04-23T08:27:57.924Z,100.00
2023-04-23T08:29:31.183Z,100.00
2023-04-23T08:31:15.111Z,100.00
2023-04-23T08:32:56.596Z,100.00
2023-04-23T08:34:29.688Z,100.00
2023-04-23T08:36:03.113Z,100.00
2023-04-23T08:37:36.295Z,100.00
2023-04-23T08:39:09.806Z,100.00
2023-04-23T08:40:43.802Z,100.00
2023-04-23T08:42:26.195Z,93.18
2023-04-23T08:44:08.965Z,100.00
2023-04-23T08:45:42.868Z,100.00
2023-04-23T08:47:19.263Z,100.00
2023-04-23T08:48:54.777Z,100.00
2023-04-23T08:50:31.087Z,100.00
2023-04-23T08:52:18.461Z,77.25
2023-04-23T08:53:57.278Z,100.00
2023-04-23T08:55:30.762Z,100.00
2023-04-23T08:57:06.230Z,100.00
2023-04-23T08:58:41.847Z,100.00
2023-04-23T09:00:17.136Z,100.00
2023-04-23T09:01:51.257Z,94.56
2023-04-23T09:03:25.320Z,95.42
2023-04-23T09:04:58.897Z,89.85
2023-04-23T09:06:33.278Z,85.93
2023-04-23T09:08:07.081Z,87.19
2023-04-23T09:09:41.513Z,89.80
2023-04-23T09:11:16.801Z,84.92
2023-04-23T09:12:50.805Z,81.49
2023-04-23T09:14:26.798Z,73.84
2023-04-23T09:16:00.070Z,74.47
2023-04-23T09:17:36.537Z,76.69
2023-04-23T09:19:12.205Z,79.58
2023-04-23T09:20:45.858Z,70.06
2023-04-23T09:22:42.330Z,48.04
2023-04-23T09:24:18.029Z,66.84
2023-04-23T09:25:51.272Z,60.87
2023-04-23T09:27:26.422Z,60.78
2023-04-23T09:28:59.664Z,58.05
2023-04-23T09:30:33.136Z,54.30
2023-04-23T09:32:09.499Z,51.06
2023-04-23T09:33:42.934Z,53.75
2023-04-23T09:35:17.776Z,54.91
2023-04-23T09:36:52.641Z,53.38
2023-04-23T09:38:27.428Z,52.88
2023-04-23T09:40:01.063Z,53.05
2023-04-23T09:41:34.308Z,55.45
2023-04-23T09:43:11.437Z,54.13
2023-04-23T09:44:44.598Z,55.18
2023-04-23T09:46:17.835Z,52.49
2023-04-23T09:47:52.943Z,50.27
2023-04-23T09:49:26.301Z,50.06
2023-04-23T09:51:03.230Z,48.87
2023-04-23T09:52:41.083Z,46.09
2023-04-23T09:54:18.942Z,47.23
2023-04-23T09:55:54.340Z,47.44
2023-04-23T09:57:27.604Z,47.58
2023-04-23T09:59:01.148Z,47.43
2023-04-23T10:00:36.724Z,47.42
2023-04-23T10:02:10.893Z,47.32
2023-04-23T10:03:45.017Z,47.42
2023-04-23T10:05:23.504Z,47.27
2023-04-23T10:07:13.700Z,47.38
2023-04-23T10:08:51.339Z,47.42
2023-04-23T10:10:26.783Z,46.93
2023-04-23T10:12:02.409Z,47.24
2023-04-23T10:13:36.958Z,47.22
2023-04-23T10:15:11.584Z,47.04
2023-04-23T10:16:49.319Z,47.83
2023-04-23T10:18:24.796Z,47.16
2023-04-23T10:20:01.628Z,46.98
2023-04-23T10:21:50.029Z,47.91
2023-04-23T10:23:26.493Z,47.49
2023-04-23T10:25:02.140Z,47.68
2023-04-23T10:26:39.945Z,46.46
2023-04-23T10:28:15.413Z,47.86
2023-04-23T10:29:50.079Z,47.82
2023-04-23T10:31:23.857Z,47.54
2023-04-23T10:32:59.608Z,47.42
2023-04-23T10:34:33.916Z,47.71
2023-04-23T10:36:08.678Z,47.78
2023-04-23T10:37:42.994Z,47.30
2023-04-23T10:39:24.010Z,48.37
2023-04-23T10:41:03.156Z,48.91
2023-04-23T10:42:38.433Z,48.43
2023-04-23T10:44:15.871Z,49.54
2023-04-23T10:45:51.116Z,49.50
2023-04-23T10:47:24.383Z,49.56
2023-04-23T10:49:15.556Z,47.42
2023-04-23T10:51:08.175Z,48.89
2023-04-23T10:52:46.855Z,48.39
2023-04-23T10:54:21.364Z,49.18
2023-04-23T10:56:07.282Z,47.74
2023-04-23T10:57:59.226Z,48.39
2023-04-23T10:59:35.113Z,49.27
2023-04-23T11:01:08.237Z,48.66
2023-04-23T11:02:45.502Z,49.54
2023-04-23T11:04:24.034Z,49.61
2023-04-23T11:05:57.603Z,49.37
2023-04-23T11:07:33.286Z,49.04
2023-04-23T11:09:49.077Z,47.70
2023-04-23T11:11:39.871Z,48.20
2023-04-23T11:13:25.149Z,48.41
2023-04-23T11:15:00.295Z,49.25
2023-04-23T11:16:35.151Z,48.85
2023-04-23T11:18:08.884Z,50.10
2023-04-23T11:19:44.023Z,49.40
2023-04-23T11:21:17.526Z,49.87
2023-04-23T11:22:52.090Z,49.15
2023-04-23T11:24:24.591Z,48.93
2023-04-23T11:25:59.253Z,48.72
2023-04-23T11:27:32.663Z,48.18
2023-04-23T11:29:08.675Z,47.82
2023-04-23T11:30:42.054Z,47.84
2023-04-23T11:32:18.169Z,47.42
2023-04-23T11:33:51.499Z,47.81
2023-04-23T11:35:28.488Z,47.69
2023-04-23T11:37:02.461Z,47.90
2023-04-23T11:38:35.780Z,48.03
2023-04-23T11:40:11.203Z,47.49
2023-04-23T11:41:46.817Z,48.21
2023-04-23T11:43:22.184Z,48.32
2023-04-23T11:44:56.710Z,48.06
2023-04-23T11:46:30.145Z,48.39
2023-04-23T11:48:03.427Z,48.47
2023-04-23T11:49:38.306Z,48.02
2023-04-23T11:51:11.414Z,48.29
2023-04-23T11:52:44.970Z,48.25
2023-04-23T11:54:18.402Z,48.27
2023-04-23T11:55:51.783Z,48.38
2023-04-23T11:57:24.952Z,48.12
2023-04-23T11:59:00.414Z,48.18
2023-04-23T12:00:34.897Z,47.93
2023-04-23T12:02:08.360Z,48.02
2023-04-23T12:03:41.668Z,48.29
2023-04-23T12:05:15.027Z,47.89
2023-04-23T12:06:49.635Z,48.65
2023-04-23T12:08:23.383Z,48.82
2023-04-23T12:10:00.617Z,47.93
2023-04-23T12:11:36.121Z,47.58
2023-04-23T12:13:14.466Z,47.82
2023-04-23T12:14:47.647Z,48.35
2023-04-23T12:16:35.190Z,45.60
2023-04-23T12:18:11.967Z,47.44
2023-04-23T12:19:45.959Z,47.68
2023-04-23T12:21:19.264Z,47.78
2023-04-23T12:22:52.591Z,47.77
2023-04-23T12:24:26.925Z,48.15
2023-04-23T12:26:00.078Z,47.84
2023-04-23T12:27:33.987Z,47.68
2023-04-23T12:29:09.927Z,46.92
2023-04-23T12:30:46.248Z,46.63
2023-04-23T12:32:23.093Z,47.11
2023-04-23T12:34:00.691Z,45.68
2023-04-23T12:35:40.831Z,45.60
2023-04-23T12:37:13.964Z,47.21
2023-04-23T12:38:47.057Z,46.35
2023-04-23T12:40:20.582Z,46.62
2023-04-23T12:41:56.681Z,46.30
2023-04-23T12:43:29.857Z,46.70
2023-04-23T12:45:11.237Z,45.31
2023-04-23T12:46:44.611Z,46.68
2023-04-23T12:48:19.841Z,46.26
2023-04-23T12:49:55.617Z,46.01
2023-04-23T12:51:28.964Z,45.87
2023-04-23T12:53:02.271Z,46.13
2023-04-23T12:54:37.793Z,46.36
2023-04-23T12:56:11.008Z,46.87
2023-04-23T12:57:44.108Z,47.43
2023-04-23T12:59:17.427Z,47.29
2023-04-23T13:00:50.741Z,47.56
2023-04-23T13:02:26.046Z,47.56
2023-04-23T13:04:00.988Z,47.89
2023-04-23T13:05:34.207Z,47.85
2023-04-23T13:07:09.631Z,47.62
2023-04-23T13:08:42.722Z,47.22
2023-04-23T13:10:16.244Z,47.20
2023-04-23T13:11:50.337Z,47.22
2023-04-23T13:13:23.627Z,47.57
2023-04-23T13:14:57.782Z,47.62
2023-04-23T13:16:31.498Z,46.84
2023-04-23T13:18:05.010Z,46.29
2023-04-23T13:19:40.609Z,46.44
2023-04-23T13:21:13.867Z,46.21
2023-04-23T13:22:47.024Z,46.26
2023-04-23T13:24:20.334Z,46.29
2023-04-23T13:25:53.825Z,46.03
2023-04-23T13:27:28.855Z,45.90
2023-04-23T13:29:02.576Z,45.53
2023-04-23T13:30:36.336Z,46.08
2023-04-23T13:32:09.597Z,46.19
2023-04-23T13:33:44.186Z,45.95
2023-04-23T13:35:19.074Z,46.08
2023-04-23T13:36:52.704Z,46.30
2023-04-23T13:38:26.428Z,46.55
2023-04-23T13:39:59.540Z,46.56
2023-04-23T13:41:32.660Z,46.56
2023-04-23T13:43:06.428Z,46.79
2023-04-23T13:44:39.528Z,46.65
2023-04-23T13:46:14.329Z,46.58
2023-04-23T13:47:48.115Z,46.15
2023-04-23T13:49:20.846Z,46.16
2023-04-23T13:50:55.652Z,45.94
2023-04-23T13:52:28.807Z,45.82
2023-04-23T13:54:02.140Z,45.85
2023-04-23T13:55:35.729Z,46.60
2023-04-23T13:57:09.217Z,46.46
2023-04-23T13:58:45.345Z,46.34
2023-04-23T14:00:19.142Z,46.47
2023-04-23T14:01:52.574Z,46.35
2023-04-23T14:03:25.885Z,46.50
2023-04-23T14:04:58.705Z,46.32
2023-04-23T14:06:33.234Z,46.53
2023-04-23T14:08:07.205Z,46.25
2023-04-23T14:09:41.202Z,46.43
2023-04-23T14:11:14.584Z,46.48
2023-04-23T14:12:47.887Z,46.70
2023-04-23T14:14:21.543Z,46.53
2023-04-23T14:15:54.761Z,46.32
2023-04-23T14:17:27.999Z,46.26
2023-04-23T14:19:01.142Z,46.34
2023-04-23T14:20:34.661Z,46.32
2023-04-23T14:22:09.366Z,46.12
2023-04-23T14:23:51.634Z,45.59
2023-04-23T14:25:32.294Z,44.70
2023-04-23T14:27:06.105Z,45.81
2023-04-23T14:28:42.159Z,45.27
2023-04-23T14:30:18.084Z,45.55
2023-04-23T14:31:51.674Z,46.04
2023-04-23T14:33:25.473Z,45.80
2023-04-23T14:34:58.698Z,46.02
2023-04-23T14:36:31.866Z,46.13
2023-04-23T14:38:06.452Z,45.54
2023-04-23T14:39:42.738Z,45.56
2023-04-23T14:41:16.333Z,45.45
2023-04-23T14:42:50.050Z,45.64
2023-04-23T14:44:26.412Z,45.59
2023-04-23T14:46:00.019Z,45.60
2023-04-23T14:47:33.229Z,45.95
2023-04-23T14:49:05.390Z,45.92
2023-04-23T14:50:38.639Z,45.69
2023-04-23T14:52:12.365Z,46.11
2023-04-23T14:53:46.943Z,46.28
2023-04-23T14:55:20.093Z,45.88
2023-04-23T14:56:53.417Z,45.49
2023-04-23T14:58:27.232Z,45.92
2023-04-23T15:00:00.773Z,45.52
2023-04-23T15:01:33.982Z,45.74
2023-04-23T15:03:10.651Z,45.64
2023-04-23T15:04:44.791Z,45.89
2023-04-23T15:06:18.001Z,45.63
2023-04-23T15:07:53.297Z,45.58
2023-04-23T15:09:27.935Z,45.76
2023-04-23T15:11:01.463Z,45.92
2023-04-23T15:12:50.703Z,44.61
2023-04-23T15:14:27.401Z,45.39
2023-04-23T15:16:06.022Z,45.44
2023-04-23T15:17:39.636Z,45.97
2023-04-23T15:19:12.828Z,46.05
2023-04-23T15:20:46.137Z,46.08
2023-04-23T15:22:19.646Z,46.01
2023-04-23T15:23:56.383Z,46.19
2023-04-23T15:25:33.244Z,45.71
2023-04-23T15:27:08.394Z,45.84
2023-04-23T15:28:41.983Z,46.06
2023-04-23T15:30:15.500Z,45.89
2023-04-23T15:31:48.656Z,46.13
2023-04-23T15:33:22.122Z,46.09
2023-04-23T15:34:55.938Z,46.35
2023-04-23T15:36:29.194Z,46.63
2023-04-23T15:38:02.308Z,46.59
2023-04-23T15:39:35.540Z,46.27
2023-04-23T15:41:10.485Z,46.35
2023-04-23T15:42:44.454Z,46.32
2023-04-23T15:44:18.964Z,46.66
2023-04-23T15:45:54.058Z,46.80
2023-04-23T15:47:27.432Z,47.08
2023-04-23T15:49:01.080Z,47.52
2023-04-23T15:50:34.266Z,47.85
2023-04-23T15:52:07.749Z,48.39
2023-04-23T15:53:41.127Z,48.75
2023-04-23T15:55:14.406Z,49.22
2023-04-23T15:56:48.953Z,49.40
2023-04-23T15:58:21.806Z,49.27
2023-04-23T15:59:55.855Z,49.37
2023-04-23T16:01:29.334Z,49.94
2023-04-23T16:03:04.637Z,50.25
2023-04-23T16:04:38.782Z,51.02
2023-04-23T16:06:12.619Z,51.40
2023-04-23T16:07:45.890Z,51.72
2023-04-23T16:09:19.096Z,52.28
2023-04-23T16:10:52.480Z,52.89
2023-04-23T16:12:27.244Z,53.42
2023-04-23T16:14:00.412Z,53.60
2023-04-23T16:15:33.716Z,54.03
2023-04-23T16:17:07.055Z,54.14
2023-04-23T16:18:40.824Z,54.69
2023-04-23T16:20:14.407Z,54.74
2023-04-23T16:21:47.622Z,55.28
2023-04-23T16:23:20.946Z,55.46
2023-04-23T16:24:55.026Z,55.75
2023-04-23T16:26:29.190Z,56.07
2023-04-23T16:28:04.829Z,56.13
2023-04-23T16:29:38.432Z,56.20
2023-04-23T16:31:10.789Z,56.54
2023-04-23T16:32:44.050Z,56.60
2023-04-23T16:34:17.503Z,56.93
2023-04-23T16:35:50.765Z,57.41
2023-04-23T16:37:24.000Z,58.51
2023-04-23T16:38:57.161Z,59.16
2023-04-23T16:40:30.652Z,61.04
2023-04-23T16:42:03.822Z,62.06
2023-04-23T16:43:38.847Z,65.17
2023-04-23T16:45:12.715Z,65.04
2023-04-23T16:46:46.018Z,66.21
2023-04-23T16:48:20.039Z,66.64
2023-04-23T16:49:54.126Z,67.76
2023-04-23T16:51:28.459Z,69.42
2023-04-23T16:53:01.709Z,69.37
2023-04-23T16:54:36.862Z,69.97
2023-04-23T16:56:10.674Z,69.52
2023-04-23T16:57:43.890Z,70.85
2023-04-23T16:59:18.744Z,72.87
2023-04-23T17:00:51.218Z,73.16
2023-04-23T17:02:24.722Z,73.25
2023-04-23T17:03:58.262Z,72.85
2023-04-23T17:05:34.515Z,74.82
2023-04-23T17:07:07.910Z,75.54
2023-04-23T17:08:41.497Z,74.97
2023-04-23T17:10:15.565Z,75.52
2023-04-23T17:11:48.699Z,76.65
2023-04-23T17:13:22.135Z,76.84
2023-04-23T17:14:56.909Z,79.27
2023-04-23T17:16:30.089Z,78.48
2023-04-23T17:18:03.908Z,79.30
2023-04-23T17:19:37.734Z,80.13
2023-04-23T17:21:11.442Z,80.71
2023-04-23T17:22:44.633Z,79.46
2023-04-23T17:24:17.816Z,80.51
2023-04-23T17:25:51.250Z,79.54
2023-04-23T17:27:24.629Z,81.42
2023-04-23T17:28:57.878Z,80.64
2023-04-23T17:30:32.497Z,82.92
2023-04-23T17:32:06.176Z,82.00
2023-04-23T17:33:39.868Z,82.54
2023-04-23T17:35:13.340Z,82.69
2023-04-23T17:36:46.835Z,82.54
2023-04-23T17:38:21.110Z,82.57
2023-04-23T17:39:54.628Z,83.48
2023-04-23T17:41:28.082Z,82.38
2023-04-23T17:43:01.338Z,82.41
2023-04-23T17:44:35.338Z,84.24
2023-04-23T17:46:10.520Z,84.68
2023-04-23T17:47:43.771Z,85.79
2023-04-23T17:49:17.289Z,86.19
2023-04-23T17:50:50.863Z,86.92
2023-04-23T17:52:24.259Z,86.76
2023-04-23T17:53:57.554Z,88.23
2023-04-23T17:55:33.068Z,89.82
2023-04-23T17:57:09.967Z,90.07
2023-04-23T17:58:43.477Z,91.18
2023-04-23T18:00:18.040Z,93.79
2023-04-23T18:01:52.655Z,95.57
2023-04-23T18:03:31.741Z,95.51
2023-04-23T18:05:06.056Z,97.42
2023-04-23T18:06:39.224Z,97.20
2023-04-23T18:08:12.954Z,99.29
2023-04-23T18:09:46.598Z,100.00
2023-04-23T18:11:20.977Z,100.00
2023-04-23T18:12:54.668Z,100.00
2023-04-23T18:14:27.871Z,100.00
2023-04-23T18:16:01.398Z,100.00
2023-04-23T18:17:36.171Z,100.00
2023-04-23T18:19:09.880Z,100.00
2023-04-23T18:20:44.285Z,100.00
2023-04-23T18:22:18.068Z,100.00
2023-04-23T18:23:51.412Z,100.00
2023-04-23T18:25:25.418Z,100.00
2023-04-23T18:26:58.718Z,100.00
2023-04-23T18:28:33.062Z,100.00
2023-04-23T18:30:08.243Z,100.00
2023-04-23T18:31:41.452Z,100.00
2023-04-23T18:33:30.952Z,100.00
2023-04-23T18:35:04.608Z,100.00
2023-04-23T18:36:39.398Z,100.00
2023-04-23T18:38:25.510Z,100.00
2023-04-23T18:39:59.170Z,100.00
2023-04-23T18:41:32.753Z,100.00
2023-04-23T18:43:06.150Z,100.00
2023-04-23T18:44:39.521Z,100.00
2023-04-23T18:46:13.123Z,100.00
2023-04-23T18:47:52.480Z,100.00
2023-04-23T18:49:46.677Z,100.00
2023-04-23T18:51:27.886Z,100.00
2023-04-23T18:53:01.343Z,100.00
2023-04-23T18:54:34.507Z,100.00
2023-04-23T18:56:07.952Z,100.00
2023-04-23T18:57:41.085Z,100.00
2023-04-23T18:59:15.344Z,100.00
2023-04-23T19:00:48.584Z,100.00
2023-04-23T19:02:34.371Z,100.00
2023-04-23T19:04:08.898Z,100.00
2023-04-23T19:05:44.289Z,100.00
2023-04-23T19:07:17.584Z,100.00
2023-04-23T19:08:51.186Z,100.00
2023-04-23T19:10:24.373Z,100.00
2023-04-23T19:11:57.755Z,100.00
2023-04-23T19:13:30.981Z,100.00
2023-04-23T19:15:04.409Z,100.00
2023-04-23T19:16:37.676Z,100.00
2023-04-23T19:18:11.012Z,100.00
2023-04-23T19:19:44.322Z,100.00
2023-04-23T19:21:19.667Z,100.00
2023-04-23T19:22:52.837Z,100.00
2023-04-23T19:24:26.588Z,100.00
2023-04-23T19:25:59.773Z,100.00
2023-04-23T19:27:33.322Z,100.00
2023-04-23T19:29:06.486Z,100.00
2023-04-23T19:30:40.128Z,100.00
2023-04-23T19:32:13.295Z,100.00
2023-04-23T19:33:47.733Z,100.00
2023-04-23T19:35:21.021Z,100.00
2023-04-23T19:36:55.876Z,100.00
2023-04-23T19:38:29.067Z,100.00
2023-04-23T19:40:02.500Z,100.00
2023-04-23T19:41:35.728Z,100.00
2023-04-23T19:43:10.840Z,100.00
2023-04-23T19:44:48.030Z,100.00
2023-04-23T19:46:21.596Z,100.00
2023-04-23T19:47:54.844Z,100.00
2023-04-23T19:49:28.096Z,100.00
2023-04-23T19:51:01.241Z,100.00
2023-04-23T19:52:36.288Z,100.00
2023-04-23T19:54:09.461Z,100.00
2023-04-23T19:55:42.688Z,100.00
2023-04-23T19:57:15.960Z,100.00
2023-04-23T19:58:50.728Z,100.00